SMO weather

Santa Monica Municipal Airport
Santa Monica, California, United States

Public forecast

Using degrees Fahrenheit for public forecast. Weather courtesy of forecast.io.

Current aviation weather report (METAR) for Santa Monica Municipal Airport

Retrieved 2020/01/21 06:51 UTC (55 minutes ago):

KSMO 210651Z AUTO 00000KT 10SM -RA SCT031 OVC075 14/10 A3010 RMK AO2 RAB44 SLP191 P0000 T01390100

Aviation forecast (TAF) for Santa Monica Municipal Airport

Retrieved 2020/01/21 06:35 UTC (1 hour ago):

TAF KSMO 210535Z 2106/2206 VRB03KT P6SM VCSH SCT025 OVC050 FM211200 VRB03KT P6SM OVC015 FM211800 23008KT P6SM BKN025 BKN150 FM220300 VRB03KT P6SM OVC025